Time;durP1;ratioP1;P1;durP2;ratioP2;P2;SDS_P1;SDS_P2;PMS_P1;PMS_P2;Temp;Humidity;BMP_temperature;BMP_pressure;BME280_temperature;BME280_humidity;BME280_pressure;Samples;Min_cycle;Max_cycle;Signal;HPM_P1;HPM_P2
2021/09/14 00:02:15;;;;;;;11.38;5.45;;;;;;;;;;5069063;28;20064;-80
2021/09/14 00:04:41;;;;;;;8.45;5.72;;;;;;;;;;5071733;28;20035;-76
2021/09/14 00:07:07;;;;;;;14.70;5.90;;;;;;;;;;5070597;28;20029;-80
2021/09/14 00:09:34;;;;;;;9.30;5.28;;;;;;;;;;5069630;28;20109;-80
2021/09/14 00:12:00;;;;;;;8.98;5.35;;;;;;;;;;5067326;28;20028;-80
2021/09/14 00:14:26;;;;;;;9.93;5.38;;;;;;;;;;5072154;28;20029;-80
2021/09/14 00:16:52;;;;;;;11.52;5.97;;;;;;;;;;5061729;28;20060;-79
2021/09/14 00:19:19;;;;;;;8.57;5.40;;;;;;;;;;5065375;28;20375;-80
2021/09/14 00:21:45;;;;;;;15.20;6.07;;;;;;;;;;5074525;28;20470;-72
2021/09/14 00:24:11;;;;;;;9.77;5.60;;;;;;;;;;5072940;28;20493;-81
2021/09/14 00:26:37;;;;;;;13.30;5.88;;;;;;;;;;5065897;28;20024;-81
2021/09/14 00:29:03;;;;;;;7.85;5.18;;;;;;;;;;5072793;28;20047;-81
2021/09/14 00:31:30;;;;;;;10.60;5.50;;;;;;;;;;5065955;28;20052;-80
2021/09/14 00:33:56;;;;;;;9.52;5.75;;;;;;;;;;5063308;28;20017;-81
2021/09/14 00:36:22;;;;;;;7.05;5.78;;;;;;;;;;5047899;28;20036;-80
2021/09/14 00:38:48;;;;;;;8.95;5.60;;;;;;;;;;5072722;28;20086;-81
2021/09/14 00:41:17;;;;;;;11.77;5.50;;;;;;;;;;5074036;28;20059;-81
2021/09/14 00:43:54;;;;;;;7.82;5.45;;;;;;;;;;5071570;28;20082;-78
2021/09/14 00:46:20;;;;;;;9.63;4.90;;;;;;;;;;5065950;28;20485;-81
2021/09/14 00:48:46;;;;;;;13.35;5.68;;;;;;;;;;5064457;28;20064;-80
2021/09/14 00:51:13;;;;;;;10.05;5.75;;;;;;;;;;5071131;28;20035;-78
2021/09/14 00:53:39;;;;;;;11.07;6.03;;;;;;;;;;5063914;28;20024;-80
2021/09/14 00:56:05;;;;;;;10.15;5.63;;;;;;;;;;5047762;28;20028;-78
2021/09/14 00:58:31;;;;;;;8.70;5.32;;;;;;;;;;5074889;28;20032;-81
2021/09/14 01:00:57;;;;;;;8.95;5.82;;;;;;;;;;5072301;28;20052;-74
2021/09/14 01:03:23;;;;;;;9.23;5.20;;;;;;;;;;5066868;28;20075;-74
2021/09/14 01:05:50;;;;;;;7.80;5.25;;;;;;;;;;5071920;28;20032;-74
2021/09/14 01:08:16;;;;;;;8.48;5.25;;;;;;;;;;5062686;28;20387;-82
2021/09/14 01:10:43;;;;;;;10.60;5.60;;;;;;;;;;5068824;28;20059;-76
2021/09/14 01:13:10;;;;;;;8.50;5.85;;;;;;;;;;5069523;28;20028;-77
2021/09/14 01:15:36;;;;;;;8.75;5.60;;;;;;;;;;5071410;28;20430;-80
2021/09/14 01:18:03;;;;;;;9.68;5.40;;;;;;;;;;5065995;28;20157;-80
2021/09/14 01:20:29;;;;;;;9.23;5.50;;;;;;;;;;5064242;28;20036;-79
2021/09/14 01:22:56;;;;;;;8.25;5.30;;;;;;;;;;5072178;28;20388;-78
2021/09/14 01:25:23;;;;;;;7.25;5.40;;;;;;;;;;5071092;28;20032;-73
2021/09/14 01:27:51;;;;;;;8.65;5.72;;;;;;;;;;5066196;28;20028;-80
2021/09/14 01:30:18;;;;;;;10.38;5.78;;;;;;;;;;5062469;28;20112;-69
2021/09/14 01:32:46;;;;;;;9.02;5.38;;;;;;;;;;5062327;28;20535;-78
2021/09/14 01:35:15;;;;;;;12.40;5.88;;;;;;;;;;5065008;28;20062;-79
2021/09/14 01:37:41;;;;;;;11.38;5.40;;;;;;;;;;5071495;28;20064;-81
2021/09/14 01:40:07;;;;;;;8.15;5.40;;;;;;;;;;5070338;28;20021;-79
2021/09/14 01:42:33;;;;;;;8.07;5.30;;;;;;;;;;5065471;28;20028;-80
2021/09/14 01:44:59;;;;;;;10.63;5.80;;;;;;;;;;5059560;28;20031;-80
2021/09/14 01:47:25;;;;;;;9.60;5.47;;;;;;;;;;5069320;28;20032;-70
2021/09/14 01:49:52;;;;;;;8.23;5.25;;;;;;;;;;5064442;28;20497;-80
2021/09/14 01:52:18;;;;;;;10.27;5.45;;;;;;;;;;5070803;28;20035;-80
2021/09/14 01:54:44;;;;;;;9.23;5.70;;;;;;;;;;5071211;28;20029;-78
2021/09/14 01:57:10;;;;;;;12.75;5.65;;;;;;;;;;5071382;28;20036;-80
2021/09/14 01:59:38;;;;;;;7.00;5.35;;;;;;;;;;5070678;28;20039;-80
2021/09/14 02:04:45;;;;;;;10.07;5.75;;;;;;;;;;5065000;28;20485;-81
2021/09/14 02:23:58;;;;;;;10.40;6.10;;;;;;;;;;5069681;28;20087;-79
2021/09/14 02:58:37;;;;;;;7.63;5.78;;;;;;;;;;5063342;28;20039;-80
2021/09/14 02:59:30;;;;;;;9.13;5.78;;;;;;;;;;5065403;28;20128;-80
2021/09/14 03:01:56;;;;;;;8.85;5.85;;;;;;;;;;5071167;28;20051;-80
2021/09/14 03:04:22;;;;;;;10.02;6.13;;;;;;;;;;5052215;28;20025;-79
2021/09/14 03:06:48;;;;;;;8.27;5.85;;;;;;;;;;5069897;28;20047;-80
2021/09/14 03:09:14;;;;;;;7.80;5.75;;;;;;;;;;5065005;28;20029;-80
2021/09/14 03:11:40;;;;;;;10.95;5.72;;;;;;;;;;5067105;28;20027;-78
2021/09/14 03:14:08;;;;;;;9.02;6.03;;;;;;;;;;5073999;28;20064;-79
2021/09/14 03:16:35;;;;;;;9.25;6.10;;;;;;;;;;5065483;28;20135;-77
2021/09/14 03:19:01;;;;;;;14.50;6.03;;;;;;;;;;5073062;28;20029;-80
2021/09/14 03:21:27;;;;;;;12.70;5.85;;;;;;;;;;5074960;28;20036;-79
2021/09/14 03:23:53;;;;;;;16.50;7.57;;;;;;;;;;5073986;28;20531;-79
2021/09/14 03:26:19;;;;;;;14.65;6.32;;;;;;;;;;5071835;28;20024;-77
2021/09/14 03:28:45;;;;;;;10.63;6.05;;;;;;;;;;5074066;28;20036;-79
2021/09/14 03:31:15;;;;;;;15.48;5.88;;;;;;;;;;5074792;28;20461;-81
2021/09/14 03:33:41;;;;;;;8.77;5.70;;;;;;;;;;5071677;28;20056;-80
2021/09/14 03:36:07;;;;;;;13.23;6.57;;;;;;;;;;5069963;28;20025;-80
2021/09/14 03:38:33;;;;;;;9.65;5.90;;;;;;;;;;5061924;28;20084;-71
2021/09/14 03:40:59;;;;;;;10.38;6.63;;;;;;;;;;5066212;28;20100;-80
2021/09/14 03:43:25;;;;;;;9.02;5.88;;;;;;;;;;5050308;28;20029;-80
2021/09/14 03:45:51;;;;;;;10.88;5.93;;;;;;;;;;5068213;28;20039;-76
2021/09/14 03:48:17;;;;;;;13.25;6.28;;;;;;;;;;5074229;28;20039;-78
2021/09/14 03:50:44;;;;;;;11.60;6.22;;;;;;;;;;5073698;28;20504;-79
2021/09/14 03:53:10;;;;;;;11.45;6.10;;;;;;;;;;5065533;28;20032;-74
2021/09/14 03:55:36;;;;;;;9.90;5.68;;;;;;;;;;5074269;28;20028;-80
2021/09/14 03:58:02;;;;;;;11.90;6.18;;;;;;;;;;5071781;28;20035;-81
2021/09/14 04:00:28;;;;;;;8.50;5.53;;;;;;;;;;5072369;28;20504;-80
2021/09/14 04:03:24;;;;;;;8.18;6.10;;;;;;;;;;5063173;28;20033;-78
2021/09/14 04:10:44;;;;;;;10.20;5.97;;;;;;;;;;5077331;28;20035;-71
2021/09/14 04:13:11;;;;;;;11.23;6.05;;;;;;;;;;5071856;28;20500;-79
2021/09/14 04:15:38;;;;;;;12.25;6.28;;;;;;;;;;5073258;28;20060;-81
2021/09/14 04:18:04;;;;;;;12.90;6.65;;;;;;;;;;5068566;28;20141;-81
2021/09/14 04:20:30;;;;;;;13.57;6.95;;;;;;;;;;5073556;28;20099;-79
2021/09/14 04:22:56;;;;;;;10.02;6.43;;;;;;;;;;5067630;28;20075;-79
2021/09/14 04:25:25;;;;;;;9.95;6.30;;;;;;;;;;5070496;28;20110;-74
2021/09/14 04:27:51;;;;;;;14.07;6.90;;;;;;;;;;5067261;28;20050;-70
2021/09/14 04:30:17;;;;;;;11.95;6.50;;;;;;;;;;5070642;28;20025;-79
2021/09/14 04:32:43;;;;;;;13.23;6.70;;;;;;;;;;5066262;28;20047;-71
2021/09/14 04:35:10;;;;;;;27.55;7.75;;;;;;;;;;5071856;28;20029;-80
2021/09/14 04:37:36;;;;;;;14.75;6.85;;;;;;;;;;5070501;28;20024;-76
2021/09/14 04:40:02;;;;;;;16.45;6.93;;;;;;;;;;5072424;28;20037;-78
2021/09/14 04:42:31;;;;;;;19.50;7.15;;;;;;;;;;5072751;28;20039;-78
2021/09/14 04:44:57;;;;;;;11.10;6.60;;;;;;;;;;5071754;28;20021;-80
2021/09/14 04:47:23;;;;;;;11.50;6.93;;;;;;;;;;5062268;28;20025;-77
2021/09/14 04:49:49;;;;;;;10.18;6.70;;;;;;;;;;5068641;28;20028;-75
2021/09/14 04:52:15;;;;;;;12.95;6.75;;;;;;;;;;5071991;28;20017;-77
2021/09/14 04:54:41;;;;;;;14.10;6.60;;;;;;;;;;5066448;28;20024;-73
2021/09/14 04:57:07;;;;;;;13.60;7.05;;;;;;;;;;5062425;28;20021;-71
2021/09/14 04:59:33;;;;;;;19.05;6.57;;;;;;;;;;5069524;28;20484;-72
2021/09/14 05:01:59;;;;;;;13.18;6.47;;;;;;;;;;5071101;28;20048;-68
2021/09/14 05:04:25;;;;;;;11.75;6.10;;;;;;;;;;5070096;28;20029;-69
2021/09/14 05:06:52;;;;;;;15.27;6.88;;;;;;;;;;5071543;28;20021;-69
2021/09/14 05:09:18;;;;;;;12.45;6.68;;;;;;;;;;5071063;28;20028;-70
2021/09/14 05:11:44;;;;;;;10.60;6.30;;;;;;;;;;5061779;28;20033;-70
2021/09/14 05:14:11;;;;;;;9.98;6.60;;;;;;;;;;5070603;28;20028;-68
2021/09/14 05:16:37;;;;;;;11.88;6.55;;;;;;;;;;5071296;28;20023;-71
2021/09/14 05:19:03;;;;;;;11.23;6.55;;;;;;;;;;5070420;28;20056;-70
2021/09/14 05:21:31;;;;;;;11.93;6.53;;;;;;;;;;5060626;28;20027;-69
2021/09/14 05:23:57;;;;;;;15.27;6.88;;;;;;;;;;5071267;28;20250;-65
2021/09/14 05:26:25;;;;;;;15.52;6.78;;;;;;;;;;5066913;28;20591;-66
2021/09/14 05:28:52;;;;;;;12.02;6.28;;;;;;;;;;5070283;28;20024;-70
2021/09/14 05:31:18;;;;;;;15.88;8.07;;;;;;;;;;5064109;28;20028;-66
2021/09/14 05:33:46;;;;;;;14.68;7.07;;;;;;;;;;5072227;28;20040;-76
2021/09/14 05:36:12;;;;;;;13.20;6.70;;;;;;;;;;5071613;28;20028;-64
2021/09/14 05:38:40;;;;;;;15.27;7.22;;;;;;;;;;5072190;28;20440;-63
2021/09/14 05:41:06;;;;;;;16.83;7.78;;;;;;;;;;5071158;28;20025;-65
2021/09/14 05:43:35;;;;;;;13.73;6.97;;;;;;;;;;5071732;28;20044;-72
2021/09/14 05:46:01;;;;;;;14.25;7.65;;;;;;;;;;5071798;28;20016;-67
2021/09/14 05:48:27;;;;;;;14.40;8.07;;;;;;;;;;5071650;28;20481;-70
2021/09/14 05:50:53;;;;;;;14.55;7.03;;;;;;;;;;5067649;28;20481;-65
2021/09/14 05:53:19;;;;;;;13.02;8.23;;;;;;;;;;5070798;28;20520;-63
2021/09/14 05:55:45;;;;;;;15.57;9.30;;;;;;;;;;5071618;28;20024;-72
2021/09/14 05:58:11;;;;;;;20.20;8.60;;;;;;;;;;5071065;28;20064;-72
2021/09/14 06:00:38;;;;;;;15.57;8.40;;;;;;;;;;5071061;28;20078;-71
2021/09/14 06:03:05;;;;;;;16.55;8.85;;;;;;;;;;5070635;28;20040;-65
2021/09/14 06:05:31;;;;;;;18.80;10.00;;;;;;;;;;5069408;28;20025;-68
2021/09/14 06:07:57;;;;;;;14.07;9.52;;;;;;;;;;5071159;28;20124;-68
2021/09/14 06:10:23;;;;;;;20.38;9.55;;;;;;;;;;5072272;28;20029;-62
2021/09/14 06:12:49;;;;;;;11.50;7.90;;;;;;;;;;5073867;28;20047;-72
2021/09/14 06:15:15;;;;;;;22.73;9.60;;;;;;;;;;5076011;28;20024;-71
2021/09/14 06:17:42;;;;;;;19.23;8.20;;;;;;;;;;5072265;28;20031;-67
2021/09/14 06:20:09;;;;;;;21.40;8.93;;;;;;;;;;5076018;28;20028;-71
2021/09/14 06:22:35;;;;;;;19.27;8.73;;;;;;;;;;5057981;28;20477;-64
2021/09/14 06:25:01;;;;;;;12.02;7.70;;;;;;;;;;5078191;28;20024;-66
2021/09/14 06:27:27;;;;;;;16.20;8.52;;;;;;;;;;5070862;28;20017;-73
2021/09/14 06:29:53;;;;;;;16.05;8.75;;;;;;;;;;5074458;28;20057;-63
2021/09/14 06:32:19;;;;;;;20.40;9.20;;;;;;;;;;5071130;28;20024;-72
2021/09/14 06:34:46;;;;;;;15.27;8.82;;;;;;;;;;5071586;28;20024;-72
2021/09/14 06:37:12;;;;;;;18.13;9.70;;;;;;;;;;5076959;28;20043;-65
2021/09/14 06:39:38;;;;;;;17.30;9.63;;;;;;;;;;5057293;28;20409;-71
2021/09/14 06:42:04;;;;;;;15.95;8.57;;;;;;;;;;5054301;28;20028;-70
2021/09/14 06:44:34;;;;;;;19.20;9.52;;;;;;;;;;5072553;28;20041;-72
2021/09/14 06:47:01;;;;;;;16.92;9.50;;;;;;;;;;5073221;28;20019;-66
2021/09/14 06:49:29;;;;;;;26.08;10.50;;;;;;;;;;5075391;28;20024;-64
2021/09/14 06:51:56;;;;;;;19.77;9.52;;;;;;;;;;5075315;28;20016;-71
2021/09/14 06:54:22;;;;;;;14.10;8.50;;;;;;;;;;5074765;28;20020;-65
2021/09/14 06:56:48;;;;;;;17.05;9.60;;;;;;;;;;5077690;28;20059;-64
2021/09/14 06:59:14;;;;;;;12.98;8.90;;;;;;;;;;5075066;28;20078;-76
2021/09/14 07:01:40;;;;;;;17.33;9.35;;;;;;;;;;5055574;28;20569;-76
2021/09/14 07:04:06;;;;;;;15.77;9.32;;;;;;;;;;5076236;28;20037;-70
2021/09/14 07:06:33;;;;;;;20.05;9.90;;;;;;;;;;5076792;28;20107;-72
2021/09/14 07:09:02;;;;;;;16.30;9.02;;;;;;;;;;5072912;28;20075;-71
2021/09/14 07:11:28;;;;;;;13.45;9.27;;;;;;;;;;5073920;28;20052;-67
2021/09/14 07:13:56;;;;;;;15.45;9.45;;;;;;;;;;5074437;28;20549;-70
2021/09/14 07:16:24;;;;;;;14.90;9.23;;;;;;;;;;5077319;28;20016;-68
2021/09/14 07:18:50;;;;;;;16.75;9.02;;;;;;;;;;5078813;28;20104;-67
2021/09/14 07:21:16;;;;;;;17.77;8.52;;;;;;;;;;5084367;28;20111;-68
2021/09/14 07:23:43;;;;;;;20.60;9.70;;;;;;;;;;5078748;28;20047;-67
2021/09/14 07:26:09;;;;;;;19.33;10.00;;;;;;;;;;5075185;28;20028;-65
2021/09/14 07:28:35;;;;;;;21.27;9.70;;;;;;;;;;5076714;28;20068;-71
2021/09/14 07:31:01;;;;;;;18.08;8.90;;;;;;;;;;5078635;28;20308;-70
2021/09/14 07:33:27;;;;;;;11.27;8.48;;;;;;;;;;5081644;28;20024;-67
2021/09/14 07:35:53;;;;;;;12.70;7.82;;;;;;;;;;5074417;28;20074;-65
2021/09/14 07:38:19;;;;;;;13.90;7.25;;;;;;;;;;5079060;28;20032;-72
2021/09/14 07:40:45;;;;;;;16.92;8.73;;;;;;;;;;5073348;28;20243;-77
2021/09/14 07:43:11;;;;;;;17.50;8.85;;;;;;;;;;5070693;28;20036;-73
2021/09/14 07:45:37;;;;;;;13.00;8.63;;;;;;;;;;5074059;28;20100;-70
2021/09/14 07:48:06;;;;;;;16.08;8.57;;;;;;;;;;5073062;28;20389;-79
2021/09/14 07:50:32;;;;;;;15.52;7.97;;;;;;;;;;5073299;28;20048;-75
2021/09/14 07:53:01;;;;;;;16.38;8.35;;;;;;;;;;5074133;28;20024;-74
2021/09/14 07:55:28;;;;;;;14.05;8.13;;;;;;;;;;5057964;28;20056;-74
2021/09/14 07:57:54;;;;;;;13.40;8.30;;;;;;;;;;5073240;28;20033;-70
2021/09/14 08:00:20;;;;;;;17.60;8.73;;;;;;;;;;5074724;28;20023;-72
2021/09/14 08:02:53;;;;;;;22.67;10.00;;;;;;;;;;5075007;28;20040;-73
2021/09/14 08:05:19;;;;;;;17.00;9.57;;;;;;;;;;5075220;28;20107;-71
2021/09/14 08:07:45;;;;;;;12.57;8.60;;;;;;;;;;5071540;28;20040;-69
2021/09/14 08:10:11;;;;;;;16.60;8.60;;;;;;;;;;5071646;28;20033;-67
2021/09/14 08:12:37;;;;;;;14.55;7.78;;;;;;;;;;5073260;28;20032;-66
2021/09/14 08:15:04;;;;;;;15.77;6.40;;;;;;;;;;5075608;28;20035;-68
2021/09/14 08:17:30;;;;;;;13.60;6.80;;;;;;;;;;5072308;28;20104;-74
2021/09/14 08:19:56;;;;;;;10.90;6.65;;;;;;;;;;5076085;28;20427;-74
2021/09/14 08:22:23;;;;;;;11.20;6.13;;;;;;;;;;5072163;28;20051;-70
2021/09/14 08:24:49;;;;;;;14.13;6.30;;;;;;;;;;5077094;28;20032;-77
2021/09/14 08:27:16;;;;;;;9.93;6.10;;;;;;;;;;5080065;28;20545;-71
2021/09/14 08:29:42;;;;;;;11.30;5.72;;;;;;;;;;5071880;28;20025;-81
2021/09/14 08:32:08;;;;;;;11.98;6.03;;;;;;;;;;5080146;28;20039;-69
2021/09/14 08:34:36;;;;;;;7.63;5.70;;;;;;;;;;5073508;28;20033;-70
2021/09/14 08:37:02;;;;;;;8.88;5.70;;;;;;;;;;5076859;28;20169;-72
2021/09/14 08:39:28;;;;;;;12.48;5.97;;;;;;;;;;5072190;28;20029;-74
2021/09/14 08:41:54;;;;;;;8.32;6.15;;;;;;;;;;5076445;28;20037;-74
2021/09/14 08:44:21;;;;;;;9.93;6.22;;;;;;;;;;5071760;28;20075;-72
2021/09/14 08:46:47;;;;;;;10.20;5.93;;;;;;;;;;5072292;28;20017;-65
2021/09/14 08:49:14;;;;;;;12.23;6.15;;;;;;;;;;5073518;28;20039;-66
2021/09/14 08:51:40;;;;;;;11.60;6.10;;;;;;;;;;5076055;28;20013;-69
2021/09/14 08:54:06;;;;;;;10.68;5.63;;;;;;;;;;5073694;28;20032;-71
2021/09/14 08:56:32;;;;;;;10.32;6.38;;;;;;;;;;5076754;28;20028;-71
2021/09/14 08:59:02;;;;;;;15.68;6.57;;;;;;;;;;5072912;28;20032;-73
2021/09/14 09:01:28;;;;;;;8.05;5.28;;;;;;;;;;5073612;28;20048;-72
2021/09/14 09:04:05;;;;;;;8.00;5.10;;;;;;;;;;5073719;28;20611;-71
2021/09/14 09:06:38;;;;;;;9.32;5.22;;;;;;;;;;5072123;28;20061;-73
2021/09/14 09:09:08;;;;;;;10.43;5.30;;;;;;;;;;5077931;28;20060;-72
2021/09/14 09:11:34;;;;;;;8.13;5.32;;;;;;;;;;5073899;28;20346;-72
2021/09/14 09:14:00;;;;;;;7.70;4.95;;;;;;;;;;5074710;28;20032;-72
2021/09/14 09:16:27;;;;;;;9.13;4.97;;;;;;;;;;5079085;28;20142;-72
2021/09/14 09:18:53;;;;;;;7.10;4.40;;;;;;;;;;5072985;28;20071;-77
2021/09/14 09:21:26;;;;;;;5.50;4.30;;;;;;;;;;5075649;28;20104;-76
2021/09/14 09:23:56;;;;;;;6.35;4.38;;;;;;;;;;5073324;28;20036;-73
2021/09/14 09:26:29;;;;;;;9.32;4.50;;;;;;;;;;5076814;28;20016;-73
2021/09/14 09:28:59;;;;;;;8.85;4.47;;;;;;;;;;5075058;28;20024;-75
2021/09/14 09:31:25;;;;;;;6.40;4.70;;;;;;;;;;5073345;28;20025;-71
2021/09/14 09:34:00;;;;;;;7.45;4.93;;;;;;;;;;5075794;28;20169;-76
2021/09/14 09:36:29;;;;;;;8.70;4.50;;;;;;;;;;5079119;28;20181;-76
2021/09/14 09:38:58;;;;;;;6.13;4.57;;;;;;;;;;5070798;28;20103;-73
2021/09/14 09:41:24;;;;;;;7.18;4.57;;;;;;;;;;5074906;28;20029;-72
2021/09/14 09:43:50;;;;;;;7.18;4.40;;;;;;;;;;5076379;28;20036;-73
2021/09/14 09:46:21;;;;;;;7.03;4.40;;;;;;;;;;5069164;28;20024;-75
2021/09/14 09:48:48;;;;;;;7.40;4.57;;;;;;;;;;5074101;28;20027;-77
2021/09/14 09:51:14;;;;;;;7.57;4.32;;;;;;;;;;5054663;28;20016;-77
2021/09/14 09:53:40;;;;;;;5.85;4.35;;;;;;;;;;5071441;28;20056;-71
2021/09/14 09:56:07;;;;;;;6.55;4.10;;;;;;;;;;5070287;28;20082;-67
2021/09/14 09:58:33;;;;;;;5.78;4.10;;;;;;;;;;5070946;28;20048;-73
2021/09/14 10:01:12;;;;;;;5.07;3.97;;;;;;;;;;5069870;28;20067;-67
2021/09/14 10:03:45;;;;;;;4.97;3.97;;;;;;;;;;5071001;28;20071;-67
2021/09/14 10:06:11;;;;;;;11.38;4.25;;;;;;;;;;5066486;28;20054;-70
2021/09/14 10:08:37;;;;;;;4.50;4.03;;;;;;;;;;5072071;28;20575;-68
2021/09/14 10:11:04;;;;;;;6.85;4.55;;;;;;;;;;5075270;28;20044;-69
2021/09/14 10:13:35;;;;;;;4.38;3.97;;;;;;;;;;5076973;28;20111;-69
2021/09/14 10:16:02;;;;;;;8.70;4.22;;;;;;;;;;5075344;28;20028;-69
2021/09/14 10:18:34;;;;;;;6.43;4.57;;;;;;;;;;5073009;28;20031;-69
2021/09/14 10:21:02;;;;;;;6.55;4.22;;;;;;;;;;5075016;28;20433;-65
2021/09/14 10:23:35;;;;;;;7.43;4.28;;;;;;;;;;5069117;28;20079;-69
2021/09/14 10:26:02;;;;;;;8.60;3.90;;;;;;;;;;5070527;28;20078;-69
2021/09/14 10:28:28;;;;;;;6.20;3.92;;;;;;;;;;5070017;28;20021;-69
2021/09/14 10:30:54;;;;;;;8.93;4.38;;;;;;;;;;5076470;28;20025;-70
2021/09/14 10:33:21;;;;;;;10.90;4.30;;;;;;;;;;5069428;28;20074;-69
2021/09/14 10:35:47;;;;;;;12.52;4.50;;;;;;;;;;5069441;28;20513;-72
2021/09/14 10:38:14;;;;;;;7.18;4.25;;;;;;;;;;5069384;28;20493;-74
2021/09/14 10:40:45;;;;;;;6.38;4.20;;;;;;;;;;5076504;28;20024;-69
2021/09/14 10:43:27;;;;;;;9.55;4.38;;;;;;;;;;5073605;28;20074;-69
2021/09/14 10:45:53;;;;;;;6.28;3.95;;;;;;;;;;5070461;28;20028;-76
2021/09/14 10:48:21;;;;;;;13.95;4.65;;;;;;;;;;5071093;28;20112;-68
2021/09/14 10:50:47;;;;;;;10.75;4.68;;;;;;;;;;5070262;28;20088;-70
2021/09/14 10:53:22;;;;;;;9.70;4.65;;;;;;;;;;5068773;28;20024;-74
2021/09/14 10:55:55;;;;;;;5.20;4.10;;;;;;;;;;5071361;28;20064;-70
2021/09/14 10:58:21;;;;;;;5.20;4.18;;;;;;;;;;5054191;28;20541;-73
2021/09/14 11:00:49;;;;;;;5.70;4.30;;;;;;;;;;5052290;28;20071;-67
2021/09/14 11:03:16;;;;;;;8.07;4.80;;;;;;;;;;5073930;28;20040;-70
2021/09/14 11:05:46;;;;;;;5.82;4.57;;;;;;;;;;5072990;28;20033;-66
2021/09/14 11:08:12;;;;;;;9.27;4.82;;;;;;;;;;5078426;28;20028;-66
2021/09/14 11:10:44;;;;;;;8.93;4.75;;;;;;;;;;5070117;28;20077;-66
2021/09/14 11:13:19;;;;;;;6.50;4.50;;;;;;;;;;5069432;28;20028;-71
2021/09/14 11:15:45;;;;;;;6.70;4.60;;;;;;;;;;5072375;28;20040;-75
2021/09/14 11:18:11;;;;;;;7.30;4.45;;;;;;;;;;5074383;28;20028;-74
2021/09/14 11:20:37;;;;;;;9.98;4.60;;;;;;;;;;5071922;28;20032;-71
2021/09/14 11:23:05;;;;;;;6.97;4.38;;;;;;;;;;5071903;28;20029;-77
2021/09/14 11:25:31;;;;;;;7.40;4.80;;;;;;;;;;5078492;28;20028;-75
2021/09/14 11:27:58;;;;;;;6.15;4.60;;;;;;;;;;5069190;28;20025;-69
2021/09/14 11:30:25;;;;;;;10.15;6.70;;;;;;;;;;5073433;28;20031;-65
2021/09/14 11:32:52;;;;;;;14.13;4.82;;;;;;;;;;5074172;28;20026;-65
2021/09/14 11:35:18;;;;;;;7.72;4.40;;;;;;;;;;5072991;28;20089;-66
2021/09/14 11:37:44;;;;;;;11.25;4.60;;;;;;;;;;5074172;28;20025;-78
2021/09/14 11:40:18;;;;;;;7.40;4.32;;;;;;;;;;5078588;28;20033;-79
2021/09/14 11:42:53;;;;;;;9.10;4.72;;;;;;;;;;5075437;28;20032;-79
2021/09/14 11:45:22;;;;;;;6.50;4.15;;;;;;;;;;5072474;28;20119;-71
2021/09/14 11:47:48;;;;;;;8.75;4.20;;;;;;;;;;5072759;28;20032;-76
2021/09/14 11:50:23;;;;;;;5.55;4.28;;;;;;;;;;5073941;28;20051;-75
2021/09/14 11:52:49;;;;;;;6.53;4.07;;;;;;;;;;5074198;28;20455;-70
2021/09/14 11:55:15;;;;;;;7.68;3.90;;;;;;;;;;5073672;28;20033;-69
2021/09/14 11:57:41;;;;;;;4.30;3.45;;;;;;;;;;5072158;28;20490;-72
2021/09/14 12:00:13;;;;;;;8.07;4.25;;;;;;;;;;5075854;28;20025;-65
2021/09/14 12:02:50;;;;;;;6.78;4.30;;;;;;;;;;5077159;28;20055;-70
2021/09/14 12:05:21;;;;;;;7.60;4.57;;;;;;;;;;5073130;28;20381;-66
2021/09/14 12:07:57;;;;;;;5.88;4.20;;;;;;;;;;5072802;28;20029;-72
2021/09/14 12:10:24;;;;;;;5.22;4.20;;;;;;;;;;5076687;28;20083;-70
2021/09/14 12:12:53;;;;;;;8.60;4.45;;;;;;;;;;5073945;28;20056;-71
2021/09/14 12:15:28;;;;;;;7.40;4.10;;;;;;;;;;5076373;28;20052;-76
2021/09/14 12:18:03;;;;;;;6.72;4.20;;;;;;;;;;5074968;28;20557;-76
2021/09/14 12:20:29;;;;;;;7.72;5.10;;;;;;;;;;5073040;28;20036;-72
2021/09/14 12:22:55;;;;;;;7.90;4.75;;;;;;;;;;5078193;28;20903;-71
2021/09/14 12:25:21;;;;;;;5.75;4.22;;;;;;;;;;5072356;28;20444;-71
2021/09/14 12:27:47;;;;;;;6.53;4.13;;;;;;;;;;5072153;28;20029;-71
2021/09/14 12:30:13;;;;;;;7.88;4.32;;;;;;;;;;5071951;28;20104;-74
2021/09/14 12:32:39;;;;;;;5.85;4.60;;;;;;;;;;5072029;28;20024;-71
2021/09/14 12:35:06;;;;;;;10.25;4.38;;;;;;;;;;5071206;28;20029;-74
2021/09/14 12:37:32;;;;;;;8.68;4.18;;;;;;;;;;5071783;28;20027;-69
2021/09/14 12:39:58;;;;;;;8.40;4.07;;;;;;;;;;5072344;28;20024;-74
2021/09/14 12:42:24;;;;;;;6.65;4.40;;;;;;;;;;5053493;28;21705;-65
2021/09/14 12:44:50;;;;;;;9.85;4.10;;;;;;;;;;5071338;28;20555;-73
2021/09/14 12:47:16;;;;;;;8.07;4.32;;;;;;;;;;5071546;28;20478;-79
2021/09/14 12:49:42;;;;;;;7.28;4.18;;;;;;;;;;5069770;28;20055;-72
2021/09/14 12:52:08;;;;;;;8.90;4.15;;;;;;;;;;5067512;28;20086;-76
2021/09/14 12:54:34;;;;;;;7.72;4.45;;;;;;;;;;5071923;28;20099;-78
2021/09/14 12:57:01;;;;;;;6.15;4.13;;;;;;;;;;5072633;28;20059;-72
2021/09/14 12:59:27;;;;;;;5.85;4.05;;;;;;;;;;5072120;28;20037;-74
2021/09/14 13:01:54;;;;;;;5.68;4.45;;;;;;;;;;5071799;28;20056;-71
2021/09/14 13:04:20;;;;;;;6.95;4.00;;;;;;;;;;5071321;28;20375;-71
2021/09/14 13:06:46;;;;;;;10.60;4.63;;;;;;;;;;5052060;28;20470;-71
2021/09/14 13:09:12;;;;;;;6.72;4.28;;;;;;;;;;5054318;28;20386;-70
2021/09/14 13:11:38;;;;;;;6.00;4.25;;;;;;;;;;5071415;28;20115;-70
2021/09/14 13:17:10;;;;;;;6.75;4.03;;;;;;;;;;4987105;28;20081;-76
2021/09/14 13:19:36;;;;;;;5.30;4.03;;;;;;;;;;4976891;28;20034;-75
2021/09/14 13:22:02;;;;;;;5.20;4.15;;;;;;;;;;4987588;28;20117;-70
2021/09/14 13:24:28;;;;;;;7.82;4.18;;;;;;;;;;4980664;28;20663;-71
2021/09/14 13:26:54;;;;;;;8.45;3.90;;;;;;;;;;4986471;28;20038;-74
2021/09/14 13:29:30;;;;;;;5.70;3.90;;;;;;;;;;4990667;28;20064;-72
2021/09/14 13:31:56;;;;;;;4.95;3.75;;;;;;;;;;4986219;28;20497;-76
2021/09/14 13:34:22;;;;;;;8.60;4.20;;;;;;;;;;4988089;28;20030;-72
2021/09/14 13:36:48;;;;;;;6.68;4.25;;;;;;;;;;4985479;28;20037;-78
2021/09/14 13:39:40;;;;;;;8.27;4.25;;;;;;;;;;4989275;28;20030;-73
2021/09/14 13:42:07;;;;;;;6.30;4.20;;;;;;;;;;4943086;29;20031;-74
2021/09/14 13:47:40;;;;;;;10.32;4.45;;;;;;;;;;4969687;28;20121;-79
2021/09/14 13:50:06;;;;;;;9.93;4.25;;;;;;;;;;5006623;28;20038;-75
2021/09/14 13:52:33;;;;;;;7.68;3.85;;;;;;;;;;5005168;28;20033;-75
2021/09/14 13:54:59;;;;;;;5.43;4.15;;;;;;;;;;5006711;28;20061;-73
2021/09/14 13:57:25;;;;;;;6.20;3.97;;;;;;;;;;5003908;28;20045;-76
2021/09/14 13:59:54;;;;;;;7.85;3.97;;;;;;;;;;4997130;28;20038;-75
2021/09/14 14:02:21;;;;;;;9.15;4.57;;;;;;;;;;5009406;28;20060;-74
2021/09/14 14:04:47;;;;;;;9.10;4.18;;;;;;;;;;5006975;28;20407;-76
2021/09/14 14:07:13;;;;;;;31.45;5.40;;;;;;;;;;5047793;28;20040;-75
2021/09/14 14:09:39;;;;;;;6.28;3.78;;;;;;;;;;5071703;28;20021;-77
2021/09/14 14:12:05;;;;;;;16.17;4.65;;;;;;;;;;5071090;28;20025;-77
2021/09/14 14:14:31;;;;;;;5.43;3.70;;;;;;;;;;5070164;28;20028;-69
2021/09/14 14:16:58;;;;;;;9.48;3.95;;;;;;;;;;5070322;28;20378;-75
2021/09/14 14:19:24;;;;;;;8.88;4.28;;;;;;;;;;5045812;28;20114;-73
2021/09/14 14:21:50;;;;;;;6.95;4.05;;;;;;;;;;5067408;28;20025;-77
2021/09/14 14:24:16;;;;;;;10.45;4.03;;;;;;;;;;5070446;28;20039;-77
2021/09/14 14:26:42;;;;;;;11.30;3.97;;;;;;;;;;5054134;28;20044;-74
2021/09/14 14:29:08;;;;;;;8.35;4.30;;;;;;;;;;5071493;28;20481;-75
2021/09/14 14:31:35;;;;;;;7.15;4.07;;;;;;;;;;5071029;28;20029;-77
2021/09/14 14:34:01;;;;;;;6.47;3.80;;;;;;;;;;5070901;28;20025;-76
2021/09/14 14:36:27;;;;;;;12.30;3.90;;;;;;;;;;5070947;28;20086;-73
2021/09/14 14:38:53;;;;;;;10.30;3.95;;;;;;;;;;5070875;28;20044;-75
2021/09/14 14:41:19;;;;;;;11.50;4.28;;;;;;;;;;5068530;28;20017;-73
2021/09/14 14:43:45;;;;;;;7.88;4.10;;;;;;;;;;5071253;28;20387;-76
2021/09/14 14:46:14;;;;;;;6.65;3.70;;;;;;;;;;5069930;28;20470;-78
2021/09/14 14:48:40;;;;;;;8.45;4.22;;;;;;;;;;5070906;28;20025;-74
2021/09/14 14:51:07;;;;;;;7.47;4.00;;;;;;;;;;5053049;28;20035;-76
2021/09/14 14:53:33;;;;;;;8.57;4.00;;;;;;;;;;5052873;28;20497;-77
2021/09/14 14:55:59;;;;;;;8.38;4.40;;;;;;;;;;5064193;28;20043;-74
2021/09/14 14:58:25;;;;;;;8.82;4.10;;;;;;;;;;5070510;28;20029;-76
2021/09/14 15:00:51;;;;;;;8.95;4.25;;;;;;;;;;5069518;28;20028;-72
2021/09/14 15:03:22;;;;;;;10.13;4.82;;;;;;;;;;5051294;28;20061;-74
2021/09/14 15:05:49;;;;;;;10.13;4.75;;;;;;;;;;5067142;28;20426;-71
2021/09/14 15:08:15;;;;;;;9.77;4.43;;;;;;;;;;5072488;28;20035;-74
2021/09/14 15:10:48;;;;;;;11.95;5.80;;;;;;;;;;5074487;28;20032;-74
2021/09/14 15:16:19;;;;;;;12.57;4.90;;;;;;;;;;5069349;28;20044;-74
2021/09/14 15:18:45;;;;;;;10.55;5.15;;;;;;;;;;5072480;28;20067;-73
2021/09/14 15:21:16;;;;;;;9.98;5.63;;;;;;;;;;5074713;28;20029;-75
2021/09/14 15:23:50;;;;;;;7.78;4.57;;;;;;;;;;5074032;28;20400;-74
2021/09/14 15:26:17;;;;;;;7.32;4.57;;;;;;;;;;5064738;28;20020;-74
2021/09/14 15:28:44;;;;;;;8.70;4.68;;;;;;;;;;5076358;28;20381;-74
2021/09/14 15:31:10;;;;;;;9.75;4.50;;;;;;;;;;5073394;28;20032;-74
2021/09/14 15:34:02;;;;;;;6.55;4.30;;;;;;;;;;5073785;28;20078;-74
2021/09/14 15:36:29;;;;;;;7.72;4.50;;;;;;;;;;4956631;28;20038;-74
2021/09/14 15:38:55;;;;;;;8.13;4.72;;;;;;;;;;4972263;28;20121;-72
2021/09/14 15:42:05;;;;;;;;;;;;;;;;;;;;;
2021/09/14 15:44:41;;;;;;;8.32;4.75;;;;;;;;;;4929517;29;20052;-74